1857 Hurricane NOT_NAMED (1857261N16301)


IBTrACS version v04r00. Visit IBTrACS website for data access.
Please direct all questions to the IBTrACS Q and A forum

Storm track - Intensity - Wind Radii - Intensity Data - Source Data - All data

Summary Information

Storm ID 1857261N16301
Start Sep 17 12Z
Landfall Sep 26 18Z, Sep 30 06Z
Max Intensity 85 kt (Sep 26 00Z)
End Sep 30 18Z
ATCF IDs
Track status Best track data.

Storm track plot

Map of storm track

Intensity plots

Map of storm track

Radial wind information

No radial wind information for this storm


Position and Intensity Table

BASIN ISO_TIME_________ NATURE LAT LON MLC WIND
degrees north degrees east kts
NA 1857-09-17 12:00:00 TS 16.00 -59.50 30
NA 15:00:00 TS 15.99 -59.86 32
NA 18:00:00 TS 16.00 -60.20 35
NA 21:00:00 TS 16.05 -60.51 40
NA 1857-09-18 00:00:00 TS 16.10 -60.80 45
NA 03:00:00 TS 16.11 -61.10 47
NA 06:00:00 TS 16.10 -61.40 50
NA 09:00:00 TS 16.09 -61.69 50
NA 12:00:00 TS 16.10 -62.00 50
NA 15:00:00 TS 16.15 -62.34 50
NA 18:00:00 TS 16.20 -62.70 50
NA 21:00:00 TS 16.21 -63.05 50
NA 1857-09-19 00:00:00 TS 16.20 -63.40 50
NA 03:00:00 TS 16.20 -63.75 50
NA 06:00:00 TS 16.20 -64.10 50
NA 09:00:00 TS 16.19 -64.46 50
NA 12:00:00 TS 16.20 -64.80 50
NA 15:00:00 TS 16.25 -65.11 50
NA 18:00:00 TS 16.30 -65.40 50
NA 21:00:00 TS 16.31 -65.65 50
NA 1857-09-20 00:00:00 TS 16.30 -65.90 50
NA 03:00:00 TS 16.30 -66.20 50
NA 06:00:00 TS 16.30 -66.50 50
NA 09:00:00 TS 16.29 -66.74 50
NA 12:00:00 TS 16.30 -67.00 50
NA 15:00:00 TS 16.35 -67.38 50
NA 18:00:00 TS 16.40 -67.80 50
NA 21:00:00 TS 16.41 -68.15 50
NA 1857-09-21 00:00:00 TS 16.40 -68.50 50
NA 03:00:00 TS 16.40 -68.90 50
NA 06:00:00 TS 16.40 -69.30 50
NA 09:00:00 TS 16.38 -69.64 50
NA 12:00:00 TS 16.40 -70.00 50
NA 15:00:00 TS 16.53 -70.43 52
NA 18:00:00 TS 16.70 -70.90 55
NA 21:00:00 TS 16.80 -71.36 55
NA 1857-09-22 00:00:00 TS 16.90 -71.80 55
NA 03:00:00 TS 17.05 -72.20 55
NA 06:00:00 TS 17.20 -72.60 55
NA 09:00:00 TS 17.30 -73.05 55
NA 12:00:00 TS 17.40 -73.50 55
NA 15:00:00 TS 17.54 -73.90 55
NA 18:00:00 TS 17.70 -74.30 55
NA 21:00:00 TS 17.85 -74.78 55
NA 1857-09-23 00:00:00 TS 18.00 -75.20 55
NA 03:00:00 TS 18.16 -75.44 55
NA 06:00:00 TS 18.30 -75.60 55
NA 09:00:00 TS 18.40 -75.78 55
NA 12:00:00 TS 18.50 -76.00 55
NA 15:00:00 TS 18.65 -76.33 57
NA 18:00:00 TS 18.80 -76.70 60
NA 21:00:00 TS 18.90 -77.01 60
NA 1857-09-24 00:00:00 TS 19.00 -77.30 60
NA 03:00:00 TS 19.15 -77.60 60
NA 06:00:00 TS 19.30 -77.90 60
NA 09:00:00 TS 19.40 -78.18 60
NA 12:00:00 TS 19.50 -78.50 60
NA 15:00:00 TS 19.65 -78.93 60
NA 18:00:00 TS 19.80 -79.40 60
NA 21:00:00 TS 19.90 -79.85 62
NA 1857-09-25 00:00:00 TS 20.00 -80.30 65
NA 03:00:00 TS 20.16 -80.75 67
NA 06:00:00 TS 20.30 -81.20 70
NA 09:00:00 TS 20.36 -81.65 72
NA 12:00:00 TS 20.40 -82.10 75
NA 15:00:00 TS 20.46 -82.54 77
NA 18:00:00 TS 20.50 -83.00 80
NA 21:00:00 TS 20.51 -83.49 82
NA 1857-09-26 00:00:00 TS 20.50 -84.00 85
NA 03:00:00 TS 20.50 -84.50 85
NA 06:00:00 TS 20.50 -85.00 85
NA 09:00:00 TS 20.48 -85.51 85
NA 12:00:00 TS 20.50 -86.00 85
NA 15:00:00 TS 20.63 -86.46 80
NA 18:00:00 TS 20.80 -86.90 75
NA 21:00:00 TS 20.90 -87.36 70
NA 1857-09-27 00:00:00 TS 21.00 -87.80 65
NA 03:00:00 TS 21.15 -88.20 60
NA 06:00:00 TS 21.30 -88.60 55
NA 09:00:00 TS 21.40 -89.05 55
NA 12:00:00 TS 21.50 -89.50 55
NA 15:00:00 TS 21.65 -89.91 52
NA 18:00:00 TS 21.80 -90.30 50
NA 21:00:00 TS 21.90 -90.65 50
NA 1857-09-28 00:00:00 TS 22.00 -91.00 50
NA 03:00:00 TS 22.15 -91.40 50
NA 06:00:00 TS 22.30 -91.80 50
NA 09:00:00 TS 22.40 -92.14 50
NA 12:00:00 TS 22.50 -92.50 50
NA 15:00:00 TS 22.64 -92.93 50
NA 18:00:00 TS 22.80 -93.40 50
NA 21:00:00 TS 22.95 -93.85 50
NA 1857-09-29 00:00:00 TS 23.10 -94.30 50
NA 03:00:00 TS 23.26 -94.76 50
NA 06:00:00 TS 23.40 -95.20 50
NA 09:00:00 TS 23.51 -95.62 50
NA 12:00:00 TS 23.60 -96.00 50
NA 15:00:00 TS 23.70 -96.37 50
NA 18:00:00 TS 23.80 -96.70 50
NA 21:00:00 TS 23.90 -97.01 50
NA 1857-09-30 00:00:00 TS 24.00 -97.30 50
NA 03:00:00 TS 24.10 -97.60 45
NA 06:00:00 TS 24.20 -97.90 40
NA 09:00:00 TS 24.30 -98.20 37
NA 12:00:00 TS 24.40 -98.50 35
NA 15:00:00 TS 24.50 -98.80 30
NA 18:00:00 TS 24.60 -99.10 25

Source Information

Agency Information
USA
TOKYO
CMA
HKO
NEWDELHI
REUNION
BOM
NADI
WELLINGTON
DS824
TD9636
TD9635
NEUMANN
MLC

All available IBTrACS Data

SEASON BASIN SUBBASIN ISO_TIME_________ NATURE LAT LON DIST2LAND LANDFALL IFLAG USA SSHS MLC LAT MLC LON MLC CLASS MLC WIND STORM SPEED STORM DIR
Year degrees north degrees east km km 1 degrees north degrees east kts kts degrees
1857 NA NA 1857-09-17 12:00:00 TS 16.00 -59.50 615 607 _____________O -1 16.00 -59.50 TD 30 7 268
1857 NA NA 15:00:00 TS 15.99 -59.86 605 599 _____________P -1 15.99 -59.86 TD 32 7 270
1857 NA NA 18:00:00 TS 16.00 -60.20 599 595 _____________O -1 16.00 -60.20 TS 35 6 276
1857 NA CS 21:00:00 TS 16.05 -60.51 595 561 _____________P -1 16.05 -60.51 TS 40 6 280
1857 NA CS 1857-09-18 00:00:00 TS 16.10 -60.80 561 532 _____________O -1 16.10 -60.80 TS 45 6 276
1857 NA CS 03:00:00 TS 16.11 -61.10 532 504 _____________P -1 16.11 -61.10 TS 47 6 270
1857 NA CS 06:00:00 TS 16.10 -61.40 504 476 _____________O -1 16.10 -61.40 TS 50 6 268
1857 NA CS 09:00:00 TS 16.09 -61.69 476 448 _____________P -1 16.09 -61.69 TS 50 6 270
1857 NA CS 12:00:00 TS 16.10 -62.00 448 422 _____________O -1 16.10 -62.00 TS 50 6 275
1857 NA CS 15:00:00 TS 16.15 -62.34 422 380 _____________P -1 16.15 -62.34 TS 50 7 278
1857 NA CS 18:00:00 TS 16.20 -62.70 380 355 _____________O -1 16.20 -62.70 TS 50 7 275
1857 NA CS 21:00:00 TS 16.21 -63.05 347 323 _____________P -1 16.21 -63.05 TS 50 7 270
1857 NA CS 1857-09-19 00:00:00 TS 16.20 -63.40 323 300 _____________O -1 16.20 -63.40 TS 50 7 269
1857 NA CS 03:00:00 TS 16.20 -63.75 300 270 _____________P -1 16.20 -63.75 TS 50 7 270
1857 NA CS 06:00:00 TS 16.20 -64.10 270 250 _____________O -1 16.20 -64.10 TS 50 7 269
1857 NA CS 09:00:00 TS 16.19 -64.46 244 227 _____________P -1 16.19 -64.46 TS 50 7 270
1857 NA CS 12:00:00 TS 16.20 -64.80 227 214 _____________O -1 16.20 -64.80 TS 50 6 275
1857 NA CS 15:00:00 TS 16.25 -65.11 214 194 _____________P -1 16.25 -65.11 TS 50 6 280
1857 NA CS 18:00:00 TS 16.30 -65.40 194 190 _____________O -1 16.30 -65.40 TS 50 5 276
1857 NA CS 21:00:00 TS 16.31 -65.65 186 181 _____________P -1 16.31 -65.65 TS 50 5 270
1857 NA CS 1857-09-20 00:00:00 TS 16.30 -65.90 181 179 _____________O -1 16.30 -65.90 TS 50 5 269
1857 NA CS 03:00:00 TS 16.30 -66.20 179 179 _____________P -1 16.30 -66.20 TS 50 6 270
1857 NA CS 06:00:00 TS 16.30 -66.50 181 180 _____________O -1 16.30 -66.50 TS 50 5 269
1857 NA CS 09:00:00 TS 16.29 -66.74 180 179 _____________P -1 16.29 -66.74 TS 50 5 270
1857 NA CS 12:00:00 TS 16.30 -67.00 179 179 _____________O -1 16.30 -67.00 TS 50 6 275
1857 NA CS 15:00:00 TS 16.35 -67.38 169 169 _____________P -1 16.35 -67.38 TS 50 8 277
1857 NA CS 18:00:00 TS 16.40 -67.80 179 179 _____________O -1 16.40 -67.80 TS 50 7 274
1857 NA CS 21:00:00 TS 16.41 -68.15 198 198 _____________P -1 16.41 -68.15 TS 50 7 270
1857 NA CS 1857-09-21 00:00:00 TS 16.40 -68.50 201 201 _____________O -1 16.40 -68.50 TS 50 7 269
1857 NA CS 03:00:00 TS 16.40 -68.90 201 201 _____________P -1 16.40 -68.90 TS 50 8 270
1857 NA CS 06:00:00 TS 16.40 -69.30 208 208 _____________O -1 16.40 -69.30 TS 50 7 268
1857 NA CS 09:00:00 TS 16.38 -69.64 211 200 _____________P -1 16.38 -69.64 TS 50 7 270
1857 NA CS 12:00:00 TS 16.40 -70.00 200 162 _____________O -1 16.40 -70.00 TS 50 8 282
1857 NA CS 15:00:00 TS 16.53 -70.43 162 113 _____________P -1 16.53 -70.43 TS 52 9 289
1857 NA CS 18:00:00 TS 16.70 -70.90 113 90 _____________O -1 16.70 -70.90 TS 55 9 287
1857 NA CS 21:00:00 TS 16.80 -71.36 89 81 _____________P -1 16.80 -71.36 TS 55 9 283
1857 NA CS 1857-09-22 00:00:00 TS 16.90 -71.80 89 89 _____________O -1 16.90 -71.80 TS 55 8 287
1857 NA CS 03:00:00 TS 17.05 -72.20 108 100 _____________P -1 17.05 -72.20 TS 55 8 291
1857 NA CS 06:00:00 TS 17.20 -72.60 102 89 _____________O -1 17.20 -72.60 TS 55 9 287
1857 NA CS 09:00:00 TS 17.30 -73.05 94 74 _____________P -1 17.30 -73.05 TS 55 9 283
1857 NA CS 12:00:00 TS 17.40 -73.50 74 55 _____________O -1 17.40 -73.50 TS 55 8 287
1857 NA CS 15:00:00 TS 17.54 -73.90 55 44 _____________P -1 17.54 -73.90 TS 55 8 291
1857 NA CS 18:00:00 TS 17.70 -74.30 54 54 _____________O -1 17.70 -74.30 TS 55 9 290
1857 NA CS 21:00:00 TS 17.85 -74.78 61 61 _____________P -1 17.85 -74.78 TS 55 9 289
1857 NA CS 1857-09-23 00:00:00 TS 18.00 -75.20 86 86 _____________O -1 18.00 -75.20 TS 55 7 296
1857 NA CS 03:00:00 TS 18.16 -75.44 91 74 _____________P -1 18.16 -75.44 TS 55 5 308
1857 NA CS 06:00:00 TS 18.30 -75.60 74 57 _____________O -1 18.30 -75.60 TS 55 4 307
1857 NA CS 09:00:00 TS 18.40 -75.78 57 46 _____________P -1 18.40 -75.78 TS 55 4 298
1857 NA CS 12:00:00 TS 18.50 -76.00 46 39 _____________O -1 18.50 -76.00 TS 55 6 295
1857 NA CS 15:00:00 TS 18.65 -76.33 55 46 _____________P -1 18.65 -76.33 TS 57 7 294
1857 NA CS 18:00:00 TS 18.80 -76.70 49 45 _____________O -1 18.80 -76.70 TS 60 7 291
1857 NA CS 21:00:00 TS 18.90 -77.01 55 55 _____________P -1 18.90 -77.01 TS 60 6 289
1857 NA CS 1857-09-24 00:00:00 TS 19.00 -77.30 67 67 _____________O -1 19.00 -77.30 TS 60 6 294
1857 NA CS 03:00:00 TS 19.15 -77.60 78 56 _____________P -1 19.15 -77.60 TS 60 6 298
1857 NA CS 06:00:00 TS 19.30 -77.90 59 54 _____________O -1 19.30 -77.90 TS 60 6 295
1857 NA CS 09:00:00 TS 19.40 -78.18 68 68 _____________P -1 19.40 -78.18 TS 60 6 289
1857 NA CS 12:00:00 TS 19.50 -78.50 90 90 _____________O -1 19.50 -78.50 TS 60 8 289
1857 NA CS 15:00:00 TS 19.65 -78.93 126 126 _____________P -1 19.65 -78.93 TS 60 9 289
1857 NA CS 18:00:00 TS 19.80 -79.40 163 163 _____________O -1 19.80 -79.40 TS 60 9 286
1857 NA CS 21:00:00 TS 19.90 -79.85 190 189 _____________P -1 19.90 -79.85 TS 62 9 283
1857 NA CS 1857-09-25 00:00:00 TS 20.00 -80.30 192 186 _____________O -1 20.00 -80.30 HU 65 9 287
1857 NA CS 03:00:00 TS 20.16 -80.75 182 182 _____________P -1 20.16 -80.75 HU 67 9 290
1857 NA CS 06:00:00 TS 20.30 -81.20 190 163 _____________O -1 20.30 -81.20 HU 70 9 284
1857 NA CS 09:00:00 TS 20.36 -81.65 157 133 _____________P -1 20.36 -81.65 HU 72 9 277
1857 NA CS 12:00:00 TS 20.40 -82.10 133 105 _____________O -1 20.40 -82.10 HU 75 8 276
1857 NA CS 15:00:00 TS 20.46 -82.54 105 100 _____________P -1 20.46 -82.54 HU 77 8 277
1857 NA CS 18:00:00 TS 20.50 -83.00 102 102 _____________O -1 20.50 -83.00 HU 80 9 273
1857 NA CS 21:00:00 TS 20.51 -83.49 123 123 _____________P -1 20.51 -83.49 HU 82 9 270
1857 NA CS 1857-09-26 00:00:00 TS 20.50 -84.00 152 145 _____________O -1 20.50 -84.00 HU 85 9 270
1857 NA CS 03:00:00 TS 20.50 -84.50 145 145 _____________P -1 20.50 -84.50 HU 85 9 270
1857 NA CS 06:00:00 TS 20.50 -85.00 146 141 _____________O -1 20.50 -85.00 HU 85 9 269
1857 NA CS 09:00:00 TS 20.48 -85.51 141 98 _____________P -1 20.48 -85.51 HU 85 9 270
1857 NA CS 12:00:00 TS 20.50 -86.00 98 56 _____________O -1 20.50 -86.00 HU 85 9 280
1857 NA CS 15:00:00 TS 20.63 -86.46 47 0 _____________P -1 20.63 -86.46 HU 80 9 290
1857 NA CS 18:00:00 TS 20.80 -86.90 0 0 _____________O -1 20.80 -86.90 HU 75 9 287
1857 NA NA 21:00:00 TS 20.90 -87.36 0 0 _____________P -1 20.90 -87.36 HU 70 9 283
1857 NA NA 1857-09-27 00:00:00 TS 21.00 -87.80 0 0 _____________O -1 21.00 -87.80 HU 65 8 288
1857 NA NA 03:00:00 TS 21.15 -88.20 0 0 _____________P -1 21.15 -88.20 HU 60 8 292
1857 NA NA 06:00:00 TS 21.30 -88.60 0 0 _____________O -1 21.30 -88.60 TS 55 8 288
1857 NA GM 09:00:00 TS 21.40 -89.05 11 11 _____________P -1 21.40 -89.05 TS 55 9 283
1857 NA GM 12:00:00 TS 21.50 -89.50 30 30 _____________O -1 21.50 -89.50 TS 55 8 287
1857 NA GM 15:00:00 TS 21.65 -89.91 44 44 _____________P -1 21.65 -89.91 TS 52 8 292
1857 NA GM 18:00:00 TS 21.80 -90.30 78 78 _____________O -1 21.80 -90.30 TS 50 7 290
1857 NA GM 21:00:00 TS 21.90 -90.65 98 98 _____________P -1 21.90 -90.65 TS 50 7 287
1857 NA GM 1857-09-28 00:00:00 TS 22.00 -91.00 123 123 _____________O -1 22.00 -91.00 TS 50 7 290
1857 NA GM 03:00:00 TS 22.15 -91.40 167 167 _____________P -1 22.15 -91.40 TS 50 8 292
1857 NA GM 06:00:00 TS 22.30 -91.80 204 204 _____________O -1 22.30 -91.80 TS 50 7 290
1857 NA GM 09:00:00 TS 22.40 -92.14 235 235 _____________P -1 22.40 -92.14 TS 50 7 287
1857 NA GM 12:00:00 TS 22.50 -92.50 275 275 _____________O -1 22.50 -92.50 TS 50 8 288
1857 NA GM 15:00:00 TS 22.64 -92.93 316 316 _____________P -1 22.64 -92.93 TS 50 9 290
1857 NA GM 18:00:00 TS 22.80 -93.40 371 371 _____________O -1 22.80 -93.40 TS 50 9 290
1857 NA GM 21:00:00 TS 22.95 -93.85 378 351 _____________P -1 22.95 -93.85 TS 50 9 290
1857 NA GM 1857-09-29 00:00:00 TS 23.10 -94.30 351 316 _____________O -1 23.10 -94.30 TS 50 9 290
1857 NA GM 03:00:00 TS 23.26 -94.76 306 265 _____________P -1 23.26 -94.76 TS 50 9 290
1857 NA GM 06:00:00 TS 23.40 -95.20 265 224 _____________O -1 23.40 -95.20 TS 50 8 288
1857 NA GM 09:00:00 TS 23.51 -95.62 224 183 _____________P -1 23.51 -95.62 TS 50 8 285
1857 NA GM 12:00:00 TS 23.60 -96.00 183 152 _____________O -1 23.60 -96.00 TS 50 7 286
1857 NA GM 15:00:00 TS 23.70 -96.37 142 111 _____________P -1 23.70 -96.37 TS 50 7 287
1857 NA GM 18:00:00 TS 23.80 -96.70 111 81 _____________O -1 23.80 -96.70 TS 50 6 289
1857 NA GM 21:00:00 TS 23.90 -97.01 81 50 _____________P -1 23.90 -97.01 TS 50 6 290
1857 NA GM 1857-09-30 00:00:00 TS 24.00 -97.30 50 20 _____________O -1 24.00 -97.30 TS 50 6 290
1857 NA GM 03:00:00 TS 24.10 -97.60 20 0 _____________P -1 24.10 -97.60 TS 45 6 290
1857 NA NA 06:00:00 TS 24.20 -97.90 0 0 _____________O -1 24.20 -97.90 TS 40 6 290
1857 NA NA 09:00:00 TS 24.30 -98.20 0 0 _____________P -1 24.30 -98.20 TS 37 6 290
1857 NA NA 12:00:00 TS 24.40 -98.50 0 0 _____________O -1 24.40 -98.50 TS 35 6 290
1857 NA NA 15:00:00 TS 24.50 -98.80 0 0 _____________P -1 24.50 -98.80 TS 30 6 290
1857 NA NA 18:00:00 TS 24.60 -99.10 0 _____________O -1 24.60 -99.10 TD 25 6 290